VTSPVTSB

Guest
Details From VTSP - Phuket Intl
To VTSB - Surat Thani
Flight Number -
Tags generated
Created
Modified
Stats Distance 78 nm / 145 km
Max Altitude 0 ft / 0 m
Waypoints 3
Social Downloads 2
Likes 0
Share VATSIM

Download

Looking for another format? Having issues loading an existing format? Contact us
Advertisement - Login to hide

Notes

Basic altitude profile: - Ascent Rate: 2500ft/min - Ascent Speed: 250kts - Cruise Altitude: 35000ft - Cruise Speed: 420kts - Descent Rate: 1500ft/min - Descent Speed: 250kts Options: - Use NATs: yes - Use PACOTS: yes - Use low airways: yes - Use high airways: yes

Route

VTSP STN VTSB

ID Type Via Altitude Latitude Longitude Leg Dist Tot Dist Heading (true) Name
O VTSP APT - 0 ft / 0 m 8.11320˚ 98.31687˚ - 0 nm - Phuket Intl
STN VOR - 0 ft / 0 m 9.12951˚ 99.13475˚ 77 nm 77 nm 38° / 39° SURAT THANI VOR-DME
O VTSB APT - 0 ft / 0 m 9.13260˚ 99.13559˚ 0 nm 78 nm 15° / 15° Surat Thani

Altitude Profile

Advertisement - Login to hide

VTSP

Details ICAO VTSP (HKT)
Name Phuket Intl
Region Thailand
Timezone Asia/Bangkok (UTC+7.0)
Stats Elevation 82 ft / 25 m (AMSL)
Location 8.113199° 98.316871°
Runways 1
Magnetic Variation 0.433° W

METAR

VTSP 142230Z 00000KT 9999 FEW022 24/00 Q1012 NOSIG

Decode

TAF

TAF VTSP 141700Z 1418/1524 28006KT 9000 FEW020 BECMG 1418/1420 VRB03KT 8000 BECMG 1502/1504 28006KT 9999 PROB30 TEMPO 1510/1514 VRB10G20KT 3000 TSRA FEW016CB SCT020 BKN100

Decode

Departure Runways

ID Width Length Bearing (true) Bearing (mag) Surface Threshold Offset Overrun Length
09 148 ft / 45 m 9,870 ft / 3,008 m 84.45° 84.88° Asphalt 0 ft / 0 m 197 ft / 60 m
27 148 ft / 45 m 9,870 ft / 3,008 m 264.46° 264.89° Asphalt 0 ft / 0 m 197 ft / 60 m

VTSB

Details ICAO VTSB (URT)
Name Surat Thani
Region Thailand
Timezone Asia/Bangkok (UTC+7.0)
Stats Elevation 20 ft / 6 m (AMSL)
Location 9.132603° 99.135586°
Runways 1
Magnetic Variation 0.411° W

METAR

VTSB 142200Z 00000KT 5000 BR FEW020 23/23 Q1011

Decode

TAF

TAF VTSB 141700Z 1418/1518 33003KT 8000 FEW020 BECMG 1420/1422 5000 BR BECMG 1501/1503 9999 NSW

Decode

Destination Runways

ID Width Length Bearing (true) Bearing (mag) Surface Threshold Offset Overrun Length
04 148 ft / 45 m 9,912 ft / 3,021 m 43.98° 44.39° Asphalt 0 ft / 0 m 250 ft / 76 m
22 148 ft / 45 m 9,912 ft / 3,021 m 223.99° 224.40° Asphalt 0 ft / 0 m 230 ft / 70 m

Approach Navaids

Runway Type Ident Frequency Range Bearing (true) Bearing (mag) Slope Elevation
22 Localiser ISTN 109.50 MHz 18 nm / 33 km 223.99° 224.40° - 20 ft / 6 m (AMSL)
22 Glidescope ISTN 109.50 MHz 10 nm / 19 km 223.99° 224.40° 3.00° 18 ft / 5 m (AMSL)
22 DME ISTN 109.50 MHz 18 nm / 33 km - - - 20 ft / 6 m (AMSL)